Sour Lake, Texas
Current Conditions -  °F | °C
As of 8:55 AM on Tuesday 21 Oct 2014 (Local Time) from KBMT Reporting Station
Clear Clear  
Wind Chill: 62°   Ceiling: Unl
Heat Index: 62°   Visibility: 10mi
Dew Point: 56°   Wind: 5mph
Humidity: 82%   Direction: 30°NNE
Pressure: 30.07"   Gusts: NA
Location:  30.14°N, 94.41°W
Report Text: KBMT 211355Z AUTO 03004KT 10SM CLR 16/13 A3007 RMK AO2 T01640134
Loading
Personal Weather Stations






























Interactive Weather Map
Tropical Storm Tracking
New forecast layout! Learn more

10-Day Weather Forecast

Advertisements
Track Severe Weather on mobile